Briefing drone pour Sennecey-le-grand

Rechercher une autre localisation

Conditions de vol :


Nous sommes le : Mardi 24 mai 2022
Il est 00:25 UTC (02:25 LT)

Lever de soleil : 03:30 UTC (05:30 LT)
Coucher de soleil : 19:44 UTC (21:44 LT)

Météo

L'essentiel des conditions de vol

VIGILANCE MÉTÉO FRANCE - Saône-et-Loire (71)
Vigilance Jaune : Orages
CARTE TEMSI
CARTES DES FRONTS
METAR de LFLH
LFLH 231800Z AUTO 25010KT 220V280 CAVOK 20/13 Q1007

Date d'émission: 23/05/2022
Heure d'émission: 18:00 UTC
Vent: 250° (variable du 220° au 280°) pour 10 KT (19 km/h)
Visibilité horizontale: > 10 km
Plafond : Plafond et visibilité OK (CAVOK)
Température: 20 °C
Point de rosée: 13 °C
Humidité: 64%
Pression (QNH): 1007 hPa
Prévision 24h pour Chalon-sur-saone (9 km)
Vent : 349° pour 1 KT (5 km/h)
Temperature Maxi: 12 °C
Temperature Min: 12 °C
Humidité : 75%
Condition : Couvert



Warning: count(): Parameter must be an array or an object that implements Countable in /homepages/6/d509196549/htdocs/droneoxygene/briefing.php on line 743
WEBCAM POUR SENNECEY-LE-GRAND

Réglementation

Voler en sécurité

CARTES AERONAUTIQUE 1/500.000
CARTES VAC (LFLH)
SUP AIP




Chargement des AIP...
NOTAM (SENNECEY-LE-GRAND + Terrain à proximité / FIR )




Chargement des NOTAMS...
CONTACT PREFECTURE 71


Avertissement : Les données mises à disposition sont indicatives. Oxygène Drone ne pourra être tenu responsable de dégâts causés aux biens et aux personnes.